Time;durP1;ratioP1;P1;durP2;ratioP2;P2;SDS_P1;SDS_P2;PMS_P1;PMS_P2;Temp;Humidity;BMP_temperature;BMP_pressure;BME280_temperature;BME280_humidity;BME280_pressure;Samples;Min_cycle;Max_cycle;Signal;HPM_P1;HPM_P2
2022/01/28 00:00:19;;;;;;;9.85;6.28;;;10.40;96.70;;;;;;5078606;28;20074;-73
2022/01/28 00:03:02;;;;;;;9.57;6.40;;;10.40;96.70;;;;;;5074366;28;20048;-74
2022/01/28 00:05:30;;;;;;;8.60;5.97;;;10.40;96.70;;;;;;5078947;28;20063;-74
2022/01/28 00:07:58;;;;;;;7.47;5.60;;;10.40;96.70;;;;;;5082103;28;20493;-74
2022/01/28 00:10:28;;;;;;;11.48;6.13;;;10.40;96.70;;;;;;5060356;28;20339;-73
2022/01/28 00:15:37;;;;;;;9.77;5.85;;;10.40;96.70;;;;;;5079734;28;20040;-74
2022/01/28 00:39:47;;;;;;;7.07;5.32;;;10.40;96.70;;;;;;5081714;28;20660;-74
2022/01/28 00:42:16;;;;;;;8.50;5.50;;;10.40;96.70;;;;;;5064383;28;20479;-75
2022/01/28 00:44:45;;;;;;;7.32;5.40;;;10.40;96.70;;;;;;5081856;28;20050;-74
2022/01/28 00:47:14;;;;;;;7.18;5.05;;;10.40;96.70;;;;;;5082710;28;20032;-74
2022/01/28 00:49:43;;;;;;;5.95;5.00;;;10.40;96.70;;;;;;5078581;28;20036;-74
2022/01/28 00:52:11;;;;;;;7.90;4.93;;;10.50;96.70;;;;;;5081668;28;20052;-74
2022/01/28 00:54:39;;;;;;;7.45;4.60;;;10.50;96.70;;;;;;5081903;28;20036;-74
2022/01/28 00:57:07;;;;;;;7.22;5.00;;;10.50;96.70;;;;;;5081357;28;20067;-74
2022/01/28 00:59:35;;;;;;;5.70;5.05;;;10.50;96.70;;;;;;5082019;28;20050;-74
2022/01/28 01:02:04;;;;;;;9.07;5.55;;;10.50;96.70;;;;;;5062540;28;20502;-74
2022/01/28 01:04:34;;;;;;;9.23;6.60;;;10.50;96.70;;;;;;5065102;28;20152;-74
2022/01/28 01:07:03;;;;;;;6.78;4.93;;;10.60;96.70;;;;;;5081745;28;20689;-74
2022/01/28 01:09:31;;;;;;;7.65;5.60;;;10.60;96.70;;;;;;5080398;28;20471;-74
2022/01/28 01:11:59;;;;;;;7.88;5.75;;;10.60;96.70;;;;;;5083705;28;20044;-74
2022/01/28 01:14:27;;;;;;;8.77;5.82;;;10.60;96.70;;;;;;5061595;28;20051;-73
2022/01/28 01:19:41;;;;;;;6.95;6.03;;;10.60;96.70;;;;;;5078403;28;20409;-74
2022/01/28 01:22:10;;;;;;;7.35;5.78;;;10.60;96.70;;;;;;5082642;28;20039;-74
2022/01/28 01:24:48;;;;;;;9.25;7.10;;;10.60;96.70;;;;;;5079690;28;20040;-74
2022/01/28 01:27:18;;;;;;;7.80;5.45;;;10.50;96.70;;;;;;5076195;28;20056;-74
2022/01/28 01:29:47;;;;;;;7.75;5.18;;;10.50;96.70;;;;;;5081108;28;20040;-74
2022/01/28 01:32:17;;;;;;;5.72;5.10;;;10.50;96.70;;;;;;5077783;28;20044;-74
2022/01/28 01:34:47;;;;;;;7.03;5.32;;;10.50;96.70;;;;;;5085190;28;20066;-75
2022/01/28 01:37:15;;;;;;;8.60;5.38;;;10.50;96.70;;;;;;5078108;28;20044;-74
2022/01/28 01:39:43;;;;;;;7.43;5.10;;;10.50;96.70;;;;;;5068902;28;20036;-74
2022/01/28 01:53:32;;;;;;;4.68;3.75;;;10.40;96.70;;;;;;5017176;28;20040;-75
2022/01/28 01:56:00;;;;;;;6.55;4.22;;;10.40;96.70;;;;;;5022557;28;20045;-75
2022/01/28 01:58:31;;;;;;;6.72;4.13;;;10.40;96.70;;;;;;5038218;28;20052;-75
2022/01/28 02:01:00;;;;;;;4.82;3.20;;;10.40;96.70;;;;;;5022791;28;20057;-75
2022/01/28 02:03:29;;;;;;;4.55;3.67;;;10.40;96.70;;;;;;5036747;28;20045;-75
2022/01/28 02:06:00;;;;;;;5.35;3.03;;;10.40;96.70;;;;;;5021341;28;20134;-75
2022/01/28 02:08:30;;;;;;;5.07;2.75;;;10.50;96.70;;;;;;5024110;28;20052;-75
2022/01/28 02:10:59;;;;;;;4.53;2.78;;;10.50;96.70;;;;;;5021738;28;20072;-75
2022/01/28 02:13:29;;;;;;;4.10;2.90;;;10.50;96.70;;;;;;5039664;28;20405;-75
2022/01/28 02:16:00;;;;;;;4.57;2.88;;;10.50;96.70;;;;;;5022145;28;20056;-75
2022/01/28 02:18:28;;;;;;;4.32;2.50;;;10.50;96.70;;;;;;5037915;28;20500;-75
2022/01/28 02:21:05;;;;;;;6.28;2.42;;;10.50;96.70;;;;;;5029080;28;20050;-75
2022/01/28 02:23:33;;;;;;;4.55;2.50;;;10.60;96.70;;;;;;5084853;28;20134;-75
2022/01/28 02:26:02;;;;;;;4.00;2.85;;;10.60;96.70;;;;;;5080243;28;20130;-77
2022/01/28 02:28:35;;;;;;;5.57;3.22;;;10.60;96.70;;;;;;5080984;28;20036;-77
2022/01/28 02:31:04;;;;;;;4.90;3.40;;;10.60;96.70;;;;;;5076538;28;20496;-78
2022/01/28 02:33:32;;;;;;;6.38;2.95;;;10.60;96.70;;;;;;5079125;28;20066;-77
2022/01/28 02:36:06;;;;;;;5.47;2.65;;;10.60;96.70;;;;;;5077741;28;20048;-78
2022/01/28 02:38:35;;;;;;;5.50;3.58;;;10.60;96.70;;;;;;5082422;28;20039;-77
2022/01/28 02:41:05;;;;;;;7.10;3.13;;;10.60;96.70;;;;;;5060891;28;20040;-77
2022/01/28 02:44:08;;;;;;;7.32;2.90;;;10.60;96.70;;;;;;5081783;28;20032;-77
2022/01/28 02:46:35;;;;;;;4.43;2.78;;;10.60;96.70;;;;;;5091686;28;20497;-77
2022/01/28 02:49:09;;;;;;;4.55;2.97;;;10.60;96.70;;;;;;5081046;28;20041;-77
2022/01/28 02:51:39;;;;;;;5.40;3.70;;;10.60;96.70;;;;;;5060345;28;20044;-77
2022/01/28 02:54:17;;;;;;;4.95;3.55;;;10.60;96.70;;;;;;5078462;28;20060;-77
2022/01/28 02:56:51;;;;;;;4.07;3.22;;;10.60;96.70;;;;;;5095446;27;20044;-77
2022/01/28 02:59:19;;;;;;;7.18;3.05;;;10.60;96.70;;;;;;5075495;28;20052;-77
2022/01/28 03:01:48;;;;;;;6.40;2.78;;;10.60;96.70;;;;;;5076699;28;20113;-77
2022/01/28 03:07:06;;;;;;;4.80;2.60;;;10.60;96.70;;;;;;5049632;28;20052;-77
2022/01/28 03:09:50;;;;;;;5.57;2.92;;;10.70;96.70;;;;;;5078915;28;20038;-77
2022/01/28 03:12:29;;;;;;;4.10;3.05;;;10.70;96.70;;;;;;5080436;28;20160;-77
2022/01/28 03:15:04;;;;;;;5.35;3.28;;;10.70;96.70;;;;;;5075610;28;20040;-77
2022/01/28 03:22:47;;;;;;;6.32;2.95;;;10.70;96.70;;;;;;5080349;28;20045;-77
2022/01/28 03:25:16;;;;;;;5.40;2.80;;;10.70;96.70;;;;;;5082818;28;20307;-77
2022/01/28 03:27:56;;;;;;;5.75;2.97;;;10.70;96.70;;;;;;5076275;28;20051;-77
2022/01/28 03:30:24;;;;;;;3.53;2.90;;;10.70;96.70;;;;;;5051692;28;20133;-78
2022/01/28 03:32:52;;;;;;;4.40;3.13;;;10.70;96.70;;;;;;5070874;28;20443;-78
2022/01/28 03:35:31;;;;;;;4.30;2.80;;;10.70;96.70;;;;;;5075423;28;20148;-77
2022/01/28 03:38:01;;;;;;;4.90;2.95;;;10.70;96.70;;;;;;5076920;28;20520;-77
2022/01/28 03:40:33;;;;;;;4.18;3.30;;;10.70;96.70;;;;;;5074205;28;20047;-77
2022/01/28 03:43:01;;;;;;;7.40;3.50;;;10.70;96.70;;;;;;5076865;28;20047;-78
2022/01/28 03:45:29;;;;;;;4.50;3.25;;;10.70;96.70;;;;;;5058791;28;20048;-77
2022/01/28 03:47:57;;;;;;;4.78;3.50;;;10.70;96.70;;;;;;5078123;28;20040;-77
2022/01/28 03:50:25;;;;;;;6.32;3.45;;;10.70;96.70;;;;;;5081903;28;20579;-77
2022/01/28 03:52:53;;;;;;;4.53;2.72;;;10.70;96.70;;;;;;5060677;28;20075;-77
2022/01/28 03:55:23;;;;;;;4.95;2.80;;;10.70;96.70;;;;;;5079088;28;20062;-78
2022/01/28 03:57:51;;;;;;;5.10;2.67;;;10.70;96.70;;;;;;5078387;28;20046;-78
2022/01/28 04:00:19;;;;;;;3.67;2.45;;;10.70;96.70;;;;;;5078120;28;20048;-75
2022/01/28 04:02:47;;;;;;;4.10;2.53;;;10.70;96.70;;;;;;5078393;28;20048;-76
2022/01/28 04:13:51;;;;;;;5.85;2.78;;;10.70;96.70;;;;;;5099254;27;20405;-76
2022/01/28 04:18:48;;;;;;;3.58;2.55;;;10.70;96.70;;;;;;5087696;28;20040;-76
2022/01/28 04:21:16;;;;;;;3.47;2.40;;;10.60;96.70;;;;;;5075965;28;20722;-76
2022/01/28 04:23:44;;;;;;;3.20;2.15;;;10.60;96.70;;;;;;5084947;28;20078;-76
2022/01/28 04:26:18;;;;;;;4.70;2.33;;;10.60;96.70;;;;;;5075946;28;20051;-76
2022/01/28 04:28:46;;;;;;;5.60;2.90;;;10.60;96.70;;;;;;5082951;28;20400;-76
2022/01/28 04:31:14;;;;;;;3.00;2.20;;;10.60;96.70;;;;;;5081156;28;20063;-77
2022/01/28 04:33:42;;;;;;;3.67;2.78;;;10.60;96.70;;;;;;5073592;28;20059;-76
2022/01/28 04:36:13;;;;;;;6.13;2.97;;;10.60;96.70;;;;;;5077716;28;20047;-78
2022/01/28 04:38:50;;;;;;;5.60;2.58;;;10.60;96.70;;;;;;5068794;28;20501;-78
2022/01/28 04:41:54;;;;;;;6.38;2.63;;;10.60;96.70;;;;;;5061097;28;20150;-78
2022/01/28 04:44:18;;;;;;;2.88;2.00;;;10.60;96.70;;;;;;5082808;28;20040;-78
2022/01/28 04:46:55;;;;;;;3.28;2.05;;;10.60;96.70;;;;;;5084422;28;20286;-78
2022/01/28 04:49:37;;;;;;;2.97;1.70;;;10.50;96.70;;;;;;5081756;28;20044;-79
2022/01/28 04:55:06;;;;;;;3.13;1.92;;;10.60;96.70;;;;;;5078548;28;20118;-78
2022/01/28 05:00:22;;;;;;;3.75;1.63;;;10.60;96.70;;;;;;5081421;28;20076;-78
2022/01/28 05:16:31;;;;;;;4.20;1.67;;;10.50;96.70;;;;;;5076021;28;20044;-79
2022/01/28 05:27:07;;;;;;;2.38;1.67;;;10.20;96.70;;;;;;5081233;28;20051;-76
2022/01/28 05:29:39;;;;;;;3.28;1.73;;;10.20;96.70;;;;;;5077713;28;20036;-76
2022/01/28 05:32:08;;;;;;;6.72;1.70;;;10.10;96.70;;;;;;5082313;28;20048;-76
2022/01/28 05:34:37;;;;;;;5.13;1.35;;;10.10;96.70;;;;;;5085863;28;20413;-76
2022/01/28 05:37:06;;;;;;;2.88;1.77;;;10.10;96.70;;;;;;5082561;28;20040;-76
2022/01/28 05:39:36;;;;;;;6.15;1.80;;;10.10;96.70;;;;;;5083591;28;20505;-76
2022/01/28 05:42:05;;;;;;;2.72;1.65;;;10.00;96.70;;;;;;5058429;28;20052;-76
2022/01/28 05:44:36;;;;;;;3.70;1.75;;;10.00;96.70;;;;;;5060299;28;20047;-76
2022/01/28 05:47:05;;;;;;;2.38;1.65;;;9.90;96.70;;;;;;5069916;28;20055;-76
2022/01/28 05:49:33;;;;;;;2.22;1.35;;;9.90;96.70;;;;;;5079385;28;20036;-76
2022/01/28 05:52:01;;;;;;;2.83;1.30;;;9.90;96.70;;;;;;5081284;28;20032;-76
2022/01/28 05:54:30;;;;;;;3.30;1.60;;;9.90;96.70;;;;;;5085019;28;20102;-75
2022/01/28 05:56:58;;;;;;;4.55;1.80;;;9.90;96.70;;;;;;5079894;28;20032;-76
2022/01/28 05:59:26;;;;;;;5.00;2.05;;;9.90;96.70;;;;;;5083748;28;20055;-76
2022/01/28 06:01:55;;;;;;;4.32;1.60;;;9.90;96.70;;;;;;5082258;28;20047;-76
2022/01/28 06:04:23;;;;;;;2.85;1.30;;;9.80;96.70;;;;;;5087775;28;20031;-76
2022/01/28 06:06:51;;;;;;;5.20;2.10;;;9.80;96.70;;;;;;5063954;28;20547;-76
2022/01/28 06:09:19;;;;;;;3.95;1.70;;;9.80;96.70;;;;;;5076720;28;20043;-76
2022/01/28 06:11:47;;;;;;;2.75;1.83;;;9.80;96.70;;;;;;5079485;28;20106;-76
2022/01/28 06:14:15;;;;;;;4.70;2.00;;;9.70;96.70;;;;;;5080533;28;20417;-78
2022/01/28 06:16:43;;;;;;;3.30;1.73;;;9.70;96.70;;;;;;5079253;28;20505;-78
2022/01/28 06:19:13;;;;;;;3.15;1.88;;;9.70;96.70;;;;;;5084339;28;20119;-78
2022/01/28 06:21:41;;;;;;;5.10;2.42;;;9.70;96.70;;;;;;5082144;28;20052;-78
2022/01/28 06:24:09;;;;;;;4.15;2.47;;;9.70;96.70;;;;;;5081182;28;20048;-78
2022/01/28 06:26:37;;;;;;;3.58;2.42;;;9.70;96.70;;;;;;5081853;28;20501;-78
2022/01/28 06:29:05;;;;;;;3.50;2.25;;;9.70;96.70;;;;;;5083552;28;20113;-78
2022/01/28 06:31:33;;;;;;;3.65;1.95;;;9.70;96.70;;;;;;5084790;28;20163;-77
2022/01/28 06:34:01;;;;;;;3.55;2.13;;;9.70;96.70;;;;;;5081426;28;20063;-78
2022/01/28 06:36:30;;;;;;;3.80;2.10;;;9.70;96.70;;;;;;5084633;28;20047;-78
2022/01/28 06:38:58;;;;;;;2.72;2.20;;;9.70;96.70;;;;;;5079632;28;20431;-78
2022/01/28 06:41:26;;;;;;;5.13;2.33;;;9.80;96.70;;;;;;5079365;28;20044;-78
2022/01/28 06:43:55;;;;;;;2.95;2.22;;;9.80;96.70;;;;;;5082961;28;20122;-78
2022/01/28 06:46:23;;;;;;;8.30;4.28;;;9.80;96.70;;;;;;5083377;28;20043;-78
2022/01/28 06:48:51;;;;;;;9.75;3.90;;;9.80;96.70;;;;;;5082481;28;20040;-78
2022/01/28 06:51:19;;;;;;;7.75;3.95;;;9.70;96.70;;;;;;5083487;28;20040;-78
2022/01/28 06:53:48;;;;;;;7.47;4.80;;;9.70;96.70;;;;;;5080951;28;20046;-78
2022/01/28 06:56:16;;;;;;;12.00;5.07;;;9.70;96.70;;;;;;5082094;28;20043;-78
2022/01/28 06:58:44;;;;;;;7.53;5.32;;;9.70;96.70;;;;;;5081056;28;20127;-78
2022/01/28 07:01:12;;;;;;;11.57;5.65;;;9.70;96.70;;;;;;5081792;28;20100;-78
2022/01/28 07:03:41;;;;;;;8.25;5.60;;;9.70;96.70;;;;;;5081451;28;20040;-78
2022/01/28 07:06:09;;;;;;;12.68;6.22;;;9.70;96.70;;;;;;5082377;28;20051;-78
2022/01/28 07:08:38;;;;;;;11.35;7.57;;;9.70;96.70;;;;;;5080794;28;20588;-78
2022/01/28 07:11:07;;;;;;;13.50;7.70;;;9.70;96.70;;;;;;5066193;28;20046;-78
2022/01/28 07:13:35;;;;;;;14.30;9.75;;;9.70;96.70;;;;;;5081251;28;20109;-78
2022/01/28 07:16:04;;;;;;;14.77;10.07;;;9.70;96.70;;;;;;5077819;28;20527;-78
2022/01/28 07:18:32;;;;;;;11.82;9.35;;;9.70;96.70;;;;;;5074551;28;20404;-78
2022/01/28 07:21:00;;;;;;;16.23;9.98;;;9.70;96.70;;;;;;5083215;28;20501;-78
2022/01/28 07:23:29;;;;;;;17.25;10.35;;;9.70;96.70;;;;;;5078843;28;20077;-78
2022/01/28 07:25:56;;;;;;;18.02;9.90;;;9.70;96.70;;;;;;5085110;28;20047;-78
2022/01/28 07:28:26;;;;;;;17.25;10.10;;;9.70;96.70;;;;;;5064454;28;20040;-77
2022/01/28 07:30:55;;;;;;;17.98;10.93;;;9.70;96.70;;;;;;5061633;28;20048;-78
2022/01/28 07:33:23;;;;;;;16.13;9.75;;;9.80;96.70;;;;;;5081297;28;20523;-78
2022/01/28 07:35:51;;;;;;;17.00;9.02;;;9.90;96.70;;;;;;5082670;28;20040;-78
2022/01/28 07:38:19;;;;;;;17.08;8.57;;;9.90;96.70;;;;;;5084726;28;20109;-78
2022/01/28 07:40:47;;;;;;;14.00;8.80;;;9.90;96.70;;;;;;5078346;28;20789;-78
2022/01/28 07:43:15;;;;;;;14.40;8.57;;;10.00;96.70;;;;;;5077782;28;20040;-78
2022/01/28 07:45:44;;;;;;;15.20;8.75;;;10.10;96.70;;;;;;5075204;28;20040;-77
2022/01/28 07:48:13;;;;;;;14.95;9.77;;;10.10;96.70;;;;;;5081048;28;20370;-77
2022/01/28 07:50:40;;;;;;;23.67;14.10;;;10.00;96.70;;;;;;5081330;28;20083;-77
2022/01/28 07:53:11;;;;;;;27.48;15.48;;;10.00;96.70;;;;;;5079611;28;21335;-77
2022/01/28 07:55:39;;;;;;;29.52;17.58;;;10.00;96.70;;;;;;5077795;28;20048;-77
2022/01/28 07:58:07;;;;;;;32.80;16.92;;;10.00;96.70;;;;;;5084029;28;20036;-77
2022/01/28 08:00:35;;;;;;;37.38;17.17;;;10.10;96.70;;;;;;5077808;28;20040;-79
2022/01/28 08:03:05;;;;;;;28.40;16.17;;;10.10;96.70;;;;;;5065403;28;20364;-79
2022/01/28 08:05:33;;;;;;;30.55;17.65;;;10.10;96.70;;;;;;5080569;28;20048;-79
2022/01/28 08:08:05;;;;;;;24.48;17.10;;;10.20;96.70;;;;;;5063710;28;20051;-77
2022/01/28 08:10:33;;;;;;;27.85;17.05;;;10.20;96.70;;;;;;5078697;28;20048;-77
2022/01/28 08:13:03;;;;;;;23.63;14.18;;;10.20;96.70;;;;;;5079713;28;20036;-78
2022/01/28 08:15:32;;;;;;;22.40;14.05;;;10.20;96.70;;;;;;5079965;28;20044;-79
2022/01/28 08:18:00;;;;;;;17.08;11.57;;;10.20;96.70;;;;;;5082089;28;20044;-79
2022/01/28 08:20:30;;;;;;;20.13;11.85;;;10.20;96.70;;;;;;5080082;28;20051;-79
2022/01/28 08:22:58;;;;;;;20.63;11.48;;;10.20;96.70;;;;;;5078649;28;20154;-79
2022/01/28 08:25:31;;;;;;;18.08;12.10;;;10.20;96.70;;;;;;5060971;28;20040;-82
2022/01/28 08:28:00;;;;;;;19.02;12.18;;;10.20;96.70;;;;;;5061873;28;20147;-78
2022/01/28 08:30:29;;;;;;;19.48;11.68;;;10.30;96.70;;;;;;5061970;28;20585;-78
2022/01/28 08:32:57;;;;;;;18.83;10.82;;;10.30;96.70;;;;;;5098943;28;20057;-76
2022/01/28 08:35:32;;;;;;;14.32;10.82;;;10.20;96.70;;;;;;5077815;28;20052;-76
2022/01/28 08:38:16;;;;;;;16.42;10.95;;;10.20;96.70;;;;;;5080376;28;20047;-78
2022/01/28 08:40:44;;;;;;;16.05;10.40;;;10.30;96.70;;;;;;5080678;28;20093;-76
2022/01/28 08:43:13;;;;;;;21.33;12.32;;;10.40;96.70;;;;;;5083439;28;20040;-76
2022/01/28 08:45:41;;;;;;;19.60;12.43;;;10.40;96.70;;;;;;5064016;28;20905;-76
2022/01/28 08:48:09;;;;;;;18.70;11.40;;;10.50;96.70;;;;;;5076434;28;20086;-76
2022/01/28 08:50:37;;;;;;;18.27;10.90;;;10.60;96.70;;;;;;5060745;28;20033;-75
2022/01/28 08:53:08;;;;;;;16.33;11.68;;;10.70;96.70;;;;;;5079424;28;20123;-76
2022/01/28 08:55:38;;;;;;;17.45;10.93;;;10.70;96.70;;;;;;5068402;28;20055;-75
2022/01/28 08:58:06;;;;;;;18.83;11.25;;;10.80;96.70;;;;;;5066069;28;20048;-76
2022/01/28 09:00:34;;;;;;;15.80;10.32;;;10.90;96.70;;;;;;5064884;28;20109;-76
2022/01/28 09:03:02;;;;;;;17.20;11.82;;;11.00;96.70;;;;;;5083543;28;20038;-76
2022/01/28 09:05:33;;;;;;;17.15;11.73;;;11.00;96.70;;;;;;5088948;28;20039;-76
2022/01/28 09:08:09;;;;;;;19.67;14.95;;;11.10;96.70;;;;;;5080680;28;20044;-76
2022/01/28 09:13:37;;;;;;;20.13;12.88;;;11.30;96.70;;;;;;5057351;28;20120;-76
2022/01/28 09:16:06;;;;;;;21.67;12.48;;;11.40;96.70;;;;;;5086231;28;20065;-76
2022/01/28 09:18:34;;;;;;;21.35;14.80;;;11.50;96.70;;;;;;5079111;28;20047;-79
2022/01/28 09:21:03;;;;;;;17.45;12.18;;;11.60;96.70;;;;;;5080665;28;20051;-79
2022/01/28 09:23:31;;;;;;;21.27;14.07;;;11.70;96.70;;;;;;5081298;28;20043;-80
2022/01/28 09:26:02;;;;;;;18.67;13.65;;;11.70;96.70;;;;;;5078448;28;20048;-79
2022/01/28 09:28:30;;;;;;;21.48;14.15;;;11.80;96.70;;;;;;5082592;28;20101;-79
2022/01/28 09:30:59;;;;;;;18.92;12.13;;;11.90;96.70;;;;;;5083805;28;20483;-79
2022/01/28 09:33:27;;;;;;;16.27;12.07;;;11.90;96.70;;;;;;5083913;28;20063;-79
2022/01/28 09:35:56;;;;;;;14.68;10.68;;;12.00;96.70;;;;;;5083956;28;20047;-80
2022/01/28 09:38:24;;;;;;;17.55;10.57;;;12.10;96.70;;;;;;5080841;28;20036;-79
2022/01/28 09:40:53;;;;;;;16.90;10.10;;;12.20;96.70;;;;;;5064038;28;20071;-80
2022/01/28 09:43:25;;;;;;;15.45;10.35;;;12.30;96.70;;;;;;5082169;28;20076;-79
2022/01/28 09:45:53;;;;;;;14.48;8.95;;;12.30;96.70;;;;;;5079409;28;20147;-79
2022/01/28 09:48:23;;;;;;;11.43;7.85;;;12.40;96.70;;;;;;5081265;28;20036;-79
2022/01/28 09:50:51;;;;;;;15.10;8.40;;;12.40;96.70;;;;;;5079135;28;20036;-79
2022/01/28 09:53:19;;;;;;;13.82;8.05;;;12.50;96.70;;;;;;5081046;28;20501;-79
2022/01/28 09:55:47;;;;;;;12.30;8.55;;;12.50;96.70;;;;;;5079467;28;20091;-79
2022/01/28 09:58:16;;;;;;;8.63;6.85;;;12.70;96.70;;;;;;5082763;28;20486;-79
2022/01/28 10:00:46;;;;;;;10.65;6.10;;;12.70;96.70;;;;;;5080962;28;20047;-79
2022/01/28 10:03:16;;;;;;;9.60;6.53;;;12.80;96.70;;;;;;5085873;28;20056;-78
2022/01/28 10:05:46;;;;;;;7.53;6.70;;;12.90;96.70;;;;;;5078631;28;20047;-79
2022/01/28 10:08:17;;;;;;;13.30;7.50;;;13.00;96.70;;;;;;5078200;28;20052;-77
2022/01/28 10:11:00;;;;;;;8.20;6.47;;;13.10;96.70;;;;;;5081639;28;20044;-77
2022/01/28 10:16:14;;;;;;;11.07;6.25;;;13.20;96.70;;;;;;5080612;28;20048;-77
2022/01/28 10:18:50;;;;;;;8.63;6.65;;;13.30;96.70;;;;;;5082936;28;20039;-78
2022/01/28 10:21:27;;;;;;;9.52;6.75;;;13.40;96.70;;;;;;5079719;28;20101;-78
2022/01/28 10:24:14;;;;;;;10.30;6.95;;;13.40;96.70;;;;;;5084703;28;20048;-78
2022/01/28 10:26:45;;;;;;;12.27;6.43;;;13.50;96.70;;;;;;5082884;28;20036;-78
2022/01/28 10:29:15;;;;;;;7.90;5.22;;;13.60;96.70;;;;;;5082488;28;20383;-77
2022/01/28 10:31:54;;;;;;;8.00;5.72;;;13.50;96.70;;;;;;5075834;28;20430;-78
2022/01/28 10:34:26;;;;;;;10.55;5.75;;;13.60;96.70;;;;;;5078785;28;20078;-78
2022/01/28 10:37:09;;;;;;;12.23;6.55;;;13.60;96.70;;;;;;5081618;28;20059;-79
2022/01/28 10:39:46;;;;;;;7.38;5.38;;;13.80;96.70;;;;;;5059989;28;20044;-79
2022/01/28 10:42:34;;;;;;;7.00;5.05;;;13.90;96.70;;;;;;5078994;28;20040;-78
2022/01/28 10:45:12;;;;;;;8.13;5.80;;;13.90;96.70;;;;;;5061758;28;20113;-77
2022/01/28 10:47:43;;;;;;;9.75;5.47;;;14.00;96.70;;;;;;5080730;28;20067;-77
2022/01/28 10:50:25;;;;;;;8.48;4.70;;;14.00;96.70;;;;;;5080959;28;20109;-77
2022/01/28 10:52:59;;;;;;;11.13;5.82;;;14.10;96.70;;;;;;5084206;28;20066;-78
2022/01/28 10:55:29;;;;;;;8.90;5.60;;;14.10;96.70;;;;;;5078538;28;20040;-78
2022/01/28 10:57:58;;;;;;;8.55;5.72;;;14.30;96.70;;;;;;5080477;28;20147;-79
2022/01/28 11:00:28;;;;;;;9.63;4.90;;;14.30;96.70;;;;;;5087386;28;20093;-78
2022/01/28 11:03:00;;;;;;;8.38;5.07;;;14.40;96.70;;;;;;5078742;28;20040;-79
2022/01/28 11:05:29;;;;;;;12.45;5.03;;;14.50;96.70;;;;;;5080673;28;20485;-79
2022/01/28 11:07:58;;;;;;;8.23;4.45;;;14.60;96.70;;;;;;5060680;28;20076;-78
2022/01/28 11:10:26;;;;;;;8.93;4.60;;;14.60;96.70;;;;;;5082720;28;20050;-79
2022/01/28 11:12:56;;;;;;;8.93;4.80;;;14.70;96.70;;;;;;5077768;28;20040;-78
2022/01/28 11:15:26;;;;;;;8.02;4.50;;;14.70;96.70;;;;;;5082580;28;20131;-78
2022/01/28 11:17:54;;;;;;;9.00;4.57;;;14.80;96.70;;;;;;5078624;28;20220;-78
2022/01/28 11:20:30;;;;;;;8.02;5.03;;;15.00;96.70;;;;;;5080003;28;20211;-78
2022/01/28 11:23:10;;;;;;;8.43;4.82;;;15.10;96.70;;;;;;5078956;28;20039;-78
2022/01/28 11:25:48;;;;;;;5.45;4.20;;;15.20;96.70;;;;;;5076709;28;20405;-77
2022/01/28 11:28:16;;;;;;;7.07;4.20;;;15.10;96.70;;;;;;5080271;28;20040;-78
2022/01/28 11:30:46;;;;;;;7.63;6.18;;;15.20;96.70;;;;;;5082484;28;20036;-79
2022/01/28 11:33:16;;;;;;;11.25;5.10;;;15.30;96.70;;;;;;5060907;28;20709;-78
2022/01/28 11:38:41;;;;;;;9.00;5.85;;;15.50;96.70;;;;;;5078132;27;20428;-78
2022/01/28 11:41:21;;;;;;;7.80;4.93;;;15.20;96.70;;;;;;5047979;28;20052;-78
2022/01/28 11:43:51;;;;;;;11.45;8.25;;;15.10;96.70;;;;;;5061876;28;20094;-78
2022/01/28 11:46:23;;;;;;;8.15;5.22;;;15.00;96.70;;;;;;5043920;28;20045;-79
2022/01/28 11:49:18;;;;;;;6.30;4.22;;;15.00;96.70;;;;;;5043844;28;20032;-78
2022/01/28 11:51:47;;;;;;;8.30;5.28;;;15.10;96.70;;;;;;5039978;28;20056;-78
2022/01/28 11:54:20;;;;;;;5.57;3.03;;;15.20;96.70;;;;;;5043961;28;20044;-79
2022/01/28 11:57:19;;;;;;;6.88;4.18;;;15.30;96.70;;;;;;5047777;28;20049;-79
2022/01/28 11:59:48;;;;;;;5.68;2.88;;;15.40;96.70;;;;;;5014897;28;20044;-78
2022/01/28 12:02:21;;;;;;;5.40;2.60;;;15.40;96.70;;;;;;5043492;28;20725;-79
2022/01/28 12:04:51;;;;;;;3.83;2.60;;;15.40;96.70;;;;;;5028975;28;20055;-78
2022/01/28 12:07:24;;;;;;;6.95;5.30;;;15.20;96.70;;;;;;5041938;28;20037;-78
2022/01/28 12:09:55;;;;;;;3.97;2.40;;;15.00;96.70;;;;;;5049782;28;20045;-77
2022/01/28 12:12:56;;;;;;;6.72;2.90;;;15.10;96.70;;;;;;5040591;28;20048;-78
2022/01/28 12:15:27;;;;;;;5.93;2.85;;;15.20;96.70;;;;;;5051987;28;20093;-79
2022/01/28 12:18:08;;;;;;;5.93;2.47;;;15.00;96.70;;;;;;5056701;28;20151;-78
2022/01/28 12:20:42;;;;;;;5.07;2.97;;;15.10;96.70;;;;;;5058625;28;20036;-78
2022/01/28 12:23:35;;;;;;;6.70;4.05;;;15.30;96.70;;;;;;5024518;28;20036;-78
2022/01/28 12:26:05;;;;;;;3.10;2.50;;;15.60;96.70;;;;;;5058126;28;20040;-78
2022/01/28 12:28:49;;;;;;;5.25;3.35;;;15.80;96.70;;;;;;5045118;28;20045;-78
2022/01/28 12:31:26;;;;;;;6.30;4.88;;;16.00;96.70;;;;;;5048304;28;20098;-78
2022/01/28 12:33:58;;;;;;;4.45;2.17;;;16.10;96.70;;;;;;5022489;28;20048;-78
2022/01/28 12:36:29;;;;;;;4.80;3.63;;;16.30;96.70;;;;;;5025566;28;20045;-78
2022/01/28 12:41:42;;;;;;;4.35;2.53;;;16.50;96.70;;;;;;5059528;28;20210;-78
2022/01/28 12:44:11;;;;;;;3.45;2.00;;;16.50;96.70;;;;;;5048321;28;20045;-78
2022/01/28 12:46:39;;;;;;;3.95;2.65;;;16.60;96.70;;;;;;5058746;28;20556;-79
2022/01/28 12:49:11;;;;;;;4.43;3.88;;;16.70;96.70;;;;;;5031536;28;20040;-79
2022/01/28 12:51:40;;;;;;;4.55;2.90;;;16.90;96.70;;;;;;5026644;28;20134;-78
2022/01/28 12:54:08;;;;;;;4.60;3.38;;;17.00;96.70;;;;;;5058877;28;20037;-78
2022/01/28 12:56:40;;;;;;;6.20;2.80;;;17.10;96.70;;;;;;5029708;28;20048;-79
2022/01/28 12:59:10;;;;;;;7.00;2.88;;;17.10;96.70;;;;;;5024334;28;20240;-78
2022/01/28 13:01:39;;;;;;;4.35;2.28;;;17.10;96.70;;;;;;5031672;28;20044;-78
2022/01/28 13:04:13;;;;;;;4.15;2.70;;;17.20;96.70;;;;;;5026877;28;20136;-79
2022/01/28 13:06:59;;;;;;;7.18;4.40;;;17.10;96.70;;;;;;5030267;28;20037;-78
2022/01/28 13:09:33;;;;;;;5.07;2.50;;;17.00;96.70;;;;;;5047606;28;20414;-78
2022/01/28 13:12:04;;;;;;;6.47;2.30;;;16.90;96.70;;;;;;5052164;28;20128;-79
2022/01/28 13:14:34;;;;;;;5.05;2.72;;;16.90;96.70;;;;;;5013709;28;20064;-78
2022/01/28 13:17:06;;;;;;;5.88;3.30;;;16.80;96.70;;;;;;5029697;28;20490;-78
2022/01/28 13:19:35;;;;;;;3.55;2.30;;;16.70;96.70;;;;;;5048212;28;20049;-78
2022/01/28 13:22:04;;;;;;;5.18;2.33;;;16.70;96.70;;;;;;5024773;28;20049;-78
2022/01/28 13:24:32;;;;;;;5.85;2.58;;;16.70;96.70;;;;;;5025891;28;20488;-78
2022/01/28 13:27:05;;;;;;;3.42;2.30;;;16.70;96.70;;;;;;5030219;28;20062;-79
2022/01/28 13:29:38;;;;;;;5.93;2.50;;;16.70;96.70;;;;;;5026035;28;20052;-79
2022/01/28 13:32:08;;;;;;;4.32;1.85;;;16.60;96.70;;;;;;5018624;28;20068;-77
2022/01/28 13:34:47;;;;;;;3.97;2.70;;;16.40;96.70;;;;;;5046659;28;20120;-78
2022/01/28 13:37:34;;;;;;;3.88;2.50;;;16.30;96.70;;;;;;5028647;28;20065;-78
2022/01/28 13:40:04;;;;;;;2.97;2.22;;;16.20;96.70;;;;;;5022854;28;20132;-78
2022/01/28 13:42:34;;;;;;;4.55;2.47;;;16.20;96.70;;;;;;5007836;28;20457;-78
2022/01/28 13:45:05;;;;;;;6.38;2.70;;;16.10;96.70;;;;;;5021040;28;20102;-78
2022/01/28 13:47:53;;;;;;;5.78;2.22;;;16.10;96.70;;;;;;5048174;28;20041;-78
2022/01/28 13:50:30;;;;;;;4.25;2.70;;;16.10;96.70;;;;;;5047509;28;20459;-78
2022/01/28 13:55:51;;;;;;;4.72;2.28;;;15.90;96.70;;;;;;5049540;28;20048;-78
2022/01/28 13:58:21;;;;;;;4.15;2.58;;;15.90;96.70;;;;;;5006621;28;20053;-78
2022/01/28 14:00:52;;;;;;;4.50;2.55;;;15.90;96.70;;;;;;5041760;28;20520;-78
2022/01/28 14:03:26;;;;;;;2.67;2.05;;;15.80;96.70;;;;;;5027543;28;20113;-78
2022/01/28 14:05:56;;;;;;;7.60;2.83;;;15.80;96.70;;;;;;5030300;28;20041;-78
2022/01/28 14:08:49;;;;;;;5.53;2.38;;;15.70;96.70;;;;;;5038396;28;20531;-78
2022/01/28 14:11:23;;;;;;;5.13;2.63;;;15.70;96.70;;;;;;5045356;28;20128;-78
2022/01/28 14:14:08;;;;;;;3.92;2.42;;;15.70;96.70;;;;;;5029988;28;20418;-77
2022/01/28 14:16:37;;;;;;;3.60;2.30;;;15.50;96.70;;;;;;5023621;28;20442;-78
2022/01/28 14:19:06;;;;;;;3.40;2.53;;;15.40;96.70;;;;;;5025190;28;20044;-78
2022/01/28 14:21:34;;;;;;;5.38;2.83;;;15.20;96.70;;;;;;5052101;28;20037;-77
2022/01/28 14:24:03;;;;;;;4.88;2.67;;;15.10;96.70;;;;;;5031018;28;20427;-78
2022/01/28 14:26:31;;;;;;;5.07;2.78;;;15.10;96.70;;;;;;5028040;28;20496;-77
2022/01/28 14:31:47;;;;;;;8.07;3.07;;;15.00;96.70;;;;;;5028347;28;20044;-77
2022/01/28 14:34:16;;;;;;;5.05;2.92;;;15.00;96.70;;;;;;5050007;28;20707;-78
2022/01/28 14:36:44;;;;;;;5.20;2.45;;;14.90;96.70;;;;;;5025247;28;20076;-78
2022/01/28 14:39:16;;;;;;;6.38;3.17;;;14.80;96.70;;;;;;5045999;28;20045;-78
2022/01/28 14:41:49;;;;;;;8.35;4.45;;;14.80;96.70;;;;;;5038328;28;20041;-78
2022/01/28 14:44:17;;;;;;;5.55;3.20;;;14.70;96.70;;;;;;5024268;28;20427;-78